Time;durP1;ratioP1;P1;durP2;ratioP2;P2;SDS_P1;SDS_P2;PMS_P1;PMS_P2;Temp;Humidity;BMP_temperature;BMP_pressure;BME280_temperature;BME280_humidity;BME280_pressure;Samples;Min_cycle;Max_cycle;Signal;HPM_P1;HPM_P2
2022/01/26 00:06:28;;;;;;;17.40;7.45;;;7.40;96.30;;;;;;5055595;28;20063;-48
2022/01/26 00:08:54;;;;;;;18.27;9.02;;;7.40;96.30;;;;;;5060921;28;20020;-48
2022/01/26 00:11:20;;;;;;;15.30;7.20;;;7.40;96.30;;;;;;5060502;28;20438;-48
2022/01/26 00:13:46;;;;;;;21.40;8.25;;;7.40;96.20;;;;;;5055730;28;20082;-48
2022/01/26 00:16:54;;;;;;;16.52;7.47;;;7.40;96.30;;;;;;5060545;28;20036;-48
2022/01/26 00:19:02;;;;;;;18.27;8.13;;;7.40;96.30;;;;;;5061947;28;20080;-48
2022/01/26 00:21:35;;;;;;;21.50;7.13;;;7.30;96.20;;;;;;5054699;28;20060;-48
2022/01/26 00:29:12;;;;;;;18.92;7.07;;;7.40;96.20;;;;;;5058991;28;20083;-48
2022/01/26 00:40:10;;;;;;;18.27;7.57;;;7.40;96.20;;;;;;5060049;28;20507;-48
2022/01/26 00:42:39;;;;;;;16.35;7.00;;;7.30;96.20;;;;;;5059117;28;20025;-48
2022/01/26 00:45:06;;;;;;;20.15;8.48;;;7.30;96.20;;;;;;5057411;28;20414;-48
2022/01/26 00:47:32;;;;;;;17.25;7.45;;;7.30;96.20;;;;;;5059393;28;20446;-49
2022/01/26 00:50:02;;;;;;;23.50;8.85;;;7.30;96.20;;;;;;5057704;28;20033;-48
2022/01/26 00:52:43;;;;;;;;;;;7.30;96.20;;;;;;5057856;28;20036;-48
2022/01/26 00:55:12;;;;;;;26.77;8.63;;;7.30;96.20;;;;;;5056710;28;19920;-48
2022/01/26 00:57:38;;;;;;;21.35;8.90;;;7.30;96.20;;;;;;5061459;28;20036;-48
2022/01/26 01:00:11;;;;;;;17.27;7.00;;;7.30;96.20;;;;;;5060443;28;20025;-48
2022/01/26 01:02:37;;;;;;;24.63;8.40;;;7.30;96.20;;;;;;5057476;28;20052;-48
2022/01/26 01:05:11;;;;;;;17.67;7.03;;;7.30;96.20;;;;;;5055699;28;20037;-48
2022/01/26 01:07:39;;;;;;;20.40;7.95;;;7.30;96.20;;;;;;5058294;28;20029;-48
2022/01/26 01:10:05;;;;;;;17.77;7.30;;;7.30;96.20;;;;;;5060810;28;20104;-48
2022/01/26 01:12:36;;;;;;;23.75;8.73;;;7.30;96.20;;;;;;5061148;28;20027;-48
2022/01/26 01:15:03;;;;;;;20.20;8.75;;;7.30;96.20;;;;;;5059757;28;20038;-48
2022/01/26 01:17:36;;;;;;;18.10;7.60;;;7.30;96.20;;;;;;5057413;28;20108;-48
2022/01/26 01:20:17;;;;;;;18.65;7.97;;;7.30;96.20;;;;;;5059040;28;20032;-48
2022/01/26 01:25:48;;;;;;;23.50;8.63;;;7.30;96.20;;;;;;5062637;28;20067;-48
2022/01/26 01:30:42;;;;;;;17.95;8.30;;;7.30;96.10;;;;;;5064000;28;20028;-48
2022/01/26 01:33:10;;;;;;;24.10;8.93;;;7.30;96.10;;;;;;5062768;28;20347;-48
2022/01/26 01:35:39;;;;;;;18.25;7.35;;;7.30;96.10;;;;;;5058593;28;20516;-48
2022/01/26 01:38:15;;;;;;;17.48;7.10;;;7.30;96.10;;;;;;5063133;28;20029;-48
2022/01/26 01:40:44;;;;;;;18.60;7.47;;;7.30;96.10;;;;;;5064409;28;20028;-48
2022/01/26 01:43:12;;;;;;;16.45;6.75;;;7.30;96.10;;;;;;5060790;28;20025;-47
2022/01/26 01:45:47;;;;;;;16.80;7.00;;;7.30;96.10;;;;;;5064872;28;20445;-48
2022/01/26 01:48:17;;;;;;;15.88;6.57;;;7.30;96.10;;;;;;5060421;28;20037;-48
2022/01/26 01:50:43;;;;;;;20.42;7.47;;;7.30;96.10;;;;;;5058951;28;20064;-48
2022/01/26 01:53:12;;;;;;;24.05;7.63;;;7.30;96.10;;;;;;5063108;28;20534;-48
2022/01/26 01:55:42;;;;;;;17.52;6.90;;;7.30;96.10;;;;;;5062167;28;20087;-48
2022/01/26 01:58:08;;;;;;;;;;;7.30;96.10;;;;;;5061705;28;20031;-48
2022/01/26 02:00:35;;;;;;;15.93;6.97;;;7.30;96.10;;;;;;5064176;28;19916;-48
2022/01/26 02:03:00;;;;;;;20.40;7.93;;;7.30;96.10;;;;;;5057617;28;20033;-48
2022/01/26 02:05:26;;;;;;;18.83;7.53;;;7.30;96.10;;;;;;5061869;28;20059;-48
2022/01/26 02:07:52;;;;;;;17.95;6.93;;;7.20;96.00;;;;;;5060630;28;20024;-48
2022/01/26 02:10:20;;;;;;;24.10;7.95;;;7.30;96.00;;;;;;5062967;28;20115;-48
2022/01/26 02:12:50;;;;;;;16.63;7.63;;;7.30;96.00;;;;;;5058292;28;20032;-48
2022/01/26 02:15:21;;;;;;;17.80;7.78;;;7.30;96.00;;;;;;5062681;28;20067;-48
2022/01/26 02:53:13;;;;;;;20.65;7.93;;;7.10;95.90;;;;;;5056547;28;20033;-48
2022/01/26 02:55:46;;;;;;;18.85;7.10;;;7.20;95.90;;;;;;5061535;28;20041;-48
2022/01/26 03:04:33;;;;;;;12.85;6.43;;;7.10;95.90;;;;;;5061673;28;20060;-49
2022/01/26 03:07:00;;;;;;;16.48;7.15;;;7.10;95.90;;;;;;5061559;28;20049;-48
2022/01/26 03:09:22;;;;;;;17.70;6.95;;;7.10;95.90;;;;;;5054233;28;20350;-48
2022/01/26 03:11:48;;;;;;;17.40;6.90;;;7.10;95.80;;;;;;5064350;28;20032;-48
2022/01/26 03:14:27;;;;;;;19.52;7.25;;;7.10;95.80;;;;;;5061489;28;20032;-48
2022/01/26 03:17:01;;;;;;;19.88;7.28;;;7.10;95.80;;;;;;5060340;28;20362;-48
2022/01/26 03:30:03;;;;;;;15.88;6.65;;;7.10;95.80;;;;;;5060284;28;20370;-49
2022/01/26 03:35:49;;;;;;;15.98;7.43;;;7.10;95.80;;;;;;5068459;28;20033;-48
2022/01/26 03:38:22;;;;;;;18.08;6.90;;;7.10;95.80;;;;;;5067664;28;20103;-48
2022/01/26 03:40:58;;;;;;;19.17;7.75;;;7.10;95.80;;;;;;5068520;28;20417;-48
2022/01/26 03:43:23;;;;;;;19.08;8.13;;;7.00;95.80;;;;;;5067428;28;20096;-48
2022/01/26 03:45:49;;;;;;;21.33;7.88;;;7.00;95.80;;;;;;5068413;28;20124;-48
2022/01/26 03:48:15;;;;;;;23.88;7.45;;;7.00;95.80;;;;;;5068018;28;20055;-48
2022/01/26 03:50:40;;;;;;;16.90;7.57;;;7.00;95.80;;;;;;5065484;28;20123;-48
2022/01/26 03:53:06;;;;;;;20.60;9.32;;;7.00;95.80;;;;;;5065160;28;20124;-48
2022/01/26 03:55:31;;;;;;;21.95;8.45;;;7.00;95.70;;;;;;5067830;28;20055;-48
2022/01/26 03:57:57;;;;;;;19.58;8.45;;;7.00;95.80;;;;;;5068654;28;20116;-48
2022/01/26 04:00:23;;;;;;;24.02;8.38;;;7.00;95.70;;;;;;5063008;28;20055;-48
2022/01/26 04:02:48;;;;;;;24.73;9.70;;;7.00;95.80;;;;;;5063391;28;20409;-48
2022/01/26 04:05:14;;;;;;;22.20;9.18;;;7.00;95.80;;;;;;5066928;28;20728;-48
2022/01/26 04:07:41;;;;;;;22.83;8.00;;;7.00;95.70;;;;;;5055274;28;20508;-48
2022/01/26 04:10:19;;;;;;;20.05;9.13;;;7.00;95.70;;;;;;5060125;28;20466;-48
2022/01/26 04:12:45;;;;;;;18.83;7.68;;;7.00;95.70;;;;;;5055869;28;20509;-48
2022/01/26 04:15:22;;;;;;;28.05;8.80;;;7.00;95.70;;;;;;5061921;28;20036;-48
2022/01/26 04:17:48;;;;;;;22.15;8.65;;;6.90;95.70;;;;;;5058164;28;20059;-48
2022/01/26 04:20:13;;;;;;;22.02;7.97;;;7.00;95.80;;;;;;5058927;28;20411;-48
2022/01/26 04:22:50;;;;;;;23.17;9.10;;;7.00;95.70;;;;;;5055638;28;20116;-48
2022/01/26 04:25:20;;;;;;;23.83;9.35;;;7.00;95.80;;;;;;5057923;28;20024;-48
2022/01/26 04:27:49;;;;;;;24.88;7.25;;;6.90;95.70;;;;;;5061310;28;20114;-48
2022/01/26 04:30:15;;;;;;;16.30;7.07;;;7.00;95.80;;;;;;5059687;28;20056;-48
2022/01/26 04:32:41;;;;;;;21.30;8.23;;;7.00;95.80;;;;;;5057357;28;20343;-48
2022/01/26 04:35:08;;;;;;;18.98;7.60;;;6.90;95.80;;;;;;5061640;28;20021;-48
2022/01/26 04:40:19;;;;;;;21.70;8.80;;;6.90;95.80;;;;;;5060118;28;20291;-48
2022/01/26 04:42:55;;;;;;;18.05;8.00;;;6.90;95.90;;;;;;5057855;28;20655;-48
2022/01/26 04:45:20;;;;;;;18.00;6.20;;;6.90;95.90;;;;;;5059602;28;20374;-48
2022/01/26 04:47:46;;;;;;;17.45;7.55;;;6.90;95.90;;;;;;5059196;28;20021;-48
2022/01/26 04:50:12;;;;;;;23.75;8.45;;;6.90;95.90;;;;;;5061749;28;20357;-48
2022/01/26 04:52:39;;;;;;;13.80;7.05;;;6.90;95.80;;;;;;5057426;28;20056;-48
2022/01/26 04:55:04;;;;;;;17.85;7.75;;;6.90;95.80;;;;;;5056612;28;20041;-48
2022/01/26 04:57:30;;;;;;;18.15;6.88;;;6.90;95.80;;;;;;5067686;28;20025;-48
2022/01/26 04:59:56;;;;;;;21.58;7.25;;;6.90;95.80;;;;;;5064666;28;20035;-48
2022/01/26 05:02:21;;;;;;;18.58;7.28;;;6.90;95.80;;;;;;5061309;28;20056;-48
2022/01/26 05:04:47;;;;;;;20.30;8.48;;;6.90;95.80;;;;;;5060453;28;20052;-48
2022/01/26 05:07:12;;;;;;;18.88;7.85;;;6.90;95.80;;;;;;5060975;28;20029;-48
2022/01/26 05:09:39;;;;;;;23.23;7.53;;;6.90;95.80;;;;;;5062715;28;20051;-48
2022/01/26 05:12:06;;;;;;;16.80;7.03;;;6.90;95.80;;;;;;5064340;28;20613;-48
2022/01/26 05:14:31;;;;;;;19.98;8.23;;;6.90;95.70;;;;;;5062926;28;20032;-48
2022/01/26 05:16:57;;;;;;;18.30;7.70;;;6.80;95.70;;;;;;5058406;28;20036;-48
2022/01/26 05:19:23;;;;;;;19.92;8.52;;;6.80;95.70;;;;;;5064263;28;20044;-48
2022/01/26 05:21:48;;;;;;;22.67;7.93;;;6.90;95.70;;;;;;5062995;28;20021;-48
2022/01/26 05:24:14;;;;;;;18.23;8.05;;;6.80;95.70;;;;;;5061688;28;20055;-48
2022/01/26 05:26:40;;;;;;;25.63;9.07;;;6.90;95.70;;;;;;5064122;28;20370;-49
2022/01/26 05:29:07;;;;;;;18.52;8.50;;;6.80;95.60;;;;;;5062715;28;20442;-48
2022/01/26 05:31:32;;;;;;;18.98;8.25;;;6.80;95.60;;;;;;5063903;28;20020;-48
2022/01/26 05:33:58;;;;;;;14.90;6.82;;;6.80;95.60;;;;;;5062860;28;20530;-48
2022/01/26 05:36:24;;;;;;;22.65;8.80;;;6.80;95.60;;;;;;5062200;28;20108;-48
2022/01/26 05:38:50;;;;;;;22.30;7.32;;;6.80;95.60;;;;;;5060589;28;20054;-48
2022/01/26 05:41:17;;;;;;;18.52;7.75;;;6.80;95.60;;;;;;5064040;28;20323;-48
2022/01/26 05:43:42;;;;;;;18.92;7.93;;;6.80;95.60;;;;;;5059753;28;20112;-48
2022/01/26 05:46:13;;;;;;;24.70;7.85;;;6.80;95.60;;;;;;5063727;28;20021;-48
2022/01/26 05:48:44;;;;;;;18.23;8.77;;;6.80;95.60;;;;;;5062547;28;20029;-48
2022/01/26 05:51:11;;;;;;;18.88;8.00;;;6.80;95.60;;;;;;5062998;28;20031;-48
2022/01/26 05:53:37;;;;;;;18.52;7.78;;;6.80;95.70;;;;;;5059915;28;20064;-48
2022/01/26 05:56:04;;;;;;;19.48;8.25;;;6.80;95.70;;;;;;5061970;28;20089;-48
2022/01/26 05:58:29;;;;;;;28.85;7.80;;;6.80;95.70;;;;;;5063002;28;20033;-48
2022/01/26 06:00:58;;;;;;;19.77;8.18;;;6.80;95.60;;;;;;5063477;28;20120;-48
2022/01/26 06:03:24;;;;;;;23.63;9.23;;;6.80;95.60;;;;;;5056163;28;20565;-48
2022/01/26 06:05:50;;;;;;;20.65;8.10;;;6.80;95.60;;;;;;5061372;28;20043;-48
2022/01/26 06:08:15;;;;;;;16.38;7.40;;;6.80;95.60;;;;;;5057002;28;20025;-48
2022/01/26 06:10:41;;;;;;;20.73;7.35;;;6.80;96.00;;;;;;5064220;28;20529;-48
2022/01/26 06:13:07;;;;;;;14.50;6.78;;;6.80;95.70;;;;;;5061093;28;20025;-48
2022/01/26 06:15:33;;;;;;;18.75;8.25;;;6.80;95.60;;;;;;5060072;28;20028;-48
2022/01/26 06:17:58;;;;;;;20.73;8.13;;;6.80;95.60;;;;;;5056250;28;20060;-48
2022/01/26 06:20:24;;;;;;;23.90;8.13;;;6.80;95.60;;;;;;5064360;28;20048;-48
2022/01/26 06:22:49;;;;;;;16.83;7.70;;;6.80;95.60;;;;;;5059572;28;20025;-48
2022/01/26 06:25:15;;;;;;;20.83;8.32;;;6.70;95.10;;;;;;5057081;28;20353;-48
2022/01/26 06:27:44;;;;;;;22.25;8.50;;;6.70;95.00;;;;;;5065853;28;20039;-48
2022/01/26 06:30:10;;;;;;;17.90;7.57;;;6.70;94.90;;;;;;5065038;28;20052;-48
2022/01/26 06:32:37;;;;;;;17.65;8.30;;;6.70;94.80;;;;;;5060462;28;20036;-48
2022/01/26 06:35:06;;;;;;;27.50;8.75;;;6.70;94.70;;;;;;5063518;28;20045;-48
2022/01/26 06:37:31;;;;;;;18.75;7.63;;;6.70;94.60;;;;;;5069329;28;20035;-48
2022/01/26 06:39:57;;;;;;;20.30;8.07;;;6.70;94.60;;;;;;5067767;28;20111;-48
2022/01/26 06:42:27;;;;;;;25.00;8.73;;;6.70;94.60;;;;;;5073610;28;20274;-48
2022/01/26 06:45:10;;;;;;;18.83;8.60;;;6.70;94.60;;;;;;5070358;28;20032;-48
2022/01/26 06:48:14;;;;;;;19.38;8.05;;;6.70;94.60;;;;;;5072605;28;20029;-48
2022/01/26 06:50:22;;;;;;;21.15;8.43;;;6.70;94.60;;;;;;5071621;28;20148;-48
2022/01/26 06:52:48;;;;;;;19.10;9.02;;;6.70;94.60;;;;;;5068002;28;20509;-48
2022/01/26 06:55:15;;;;;;;19.92;7.30;;;6.70;94.60;;;;;;5069866;28;20465;-49
2022/01/26 06:57:40;;;;;;;20.08;8.48;;;6.70;94.60;;;;;;5066741;28;20023;-48
2022/01/26 07:00:08;;;;;;;24.75;9.80;;;6.70;94.60;;;;;;5071980;28;20099;-48
2022/01/26 07:02:34;;;;;;;22.48;7.75;;;6.70;94.60;;;;;;5072613;28;20016;-49
2022/01/26 07:04:59;;;;;;;24.55;8.65;;;6.70;94.70;;;;;;5071022;28;20123;-48
2022/01/26 07:07:25;;;;;;;24.67;8.80;;;6.70;94.70;;;;;;5068049;28;20070;-48
2022/01/26 07:09:50;;;;;;;29.20;10.20;;;6.60;94.60;;;;;;5069991;28;20365;-48
2022/01/26 07:12:16;;;;;;;20.80;8.55;;;6.70;94.70;;;;;;5067300;28;20024;-48
2022/01/26 07:21:22;;;;;;;18.48;8.25;;;6.70;94.70;;;;;;5072925;28;20541;-48
2022/01/26 07:23:03;;;;;;;22.10;7.72;;;6.70;94.70;;;;;;5071242;28;20063;-48
2022/01/26 07:25:28;;;;;;;19.35;7.13;;;6.60;94.70;;;;;;5061028;28;20052;-48
2022/01/26 07:27:56;;;;;;;15.50;6.28;;;6.60;94.70;;;;;;5064171;28;20028;-48
2022/01/26 07:30:22;;;;;;;21.95;8.52;;;6.70;94.70;;;;;;5061553;28;20040;-48
2022/01/26 07:32:48;;;;;;;16.77;5.88;;;6.70;94.70;;;;;;5068816;28;20040;-48
2022/01/26 07:35:13;;;;;;;17.70;7.35;;;6.70;94.70;;;;;;5070684;28;20635;-48
2022/01/26 07:37:39;;;;;;;17.05;7.43;;;6.70;94.70;;;;;;5070225;28;20025;-48
2022/01/26 07:40:09;;;;;;;13.80;7.40;;;6.70;94.70;;;;;;5068784;28;20028;-48
2022/01/26 07:42:36;;;;;;;18.67;7.13;;;6.60;94.70;;;;;;5062746;28;20082;-48
2022/01/26 07:45:05;;;;;;;17.05;6.22;;;6.70;94.70;;;;;;5065141;28;20277;-48
2022/01/26 07:47:31;;;;;;;12.63;6.40;;;6.70;94.70;;;;;;5067106;28;20033;-48
2022/01/26 07:50:02;;;;;;;20.80;9.30;;;6.70;94.70;;;;;;5068711;28;20032;-48
2022/01/26 07:52:30;;;;;;;15.82;7.22;;;6.70;94.70;;;;;;5067569;28;20042;-48
2022/01/26 07:54:56;;;;;;;15.18;5.88;;;6.70;94.70;;;;;;5063461;28;20052;-48
2022/01/26 07:57:22;;;;;;;33.28;14.48;;;6.70;94.70;;;;;;5069865;28;20350;-48
2022/01/26 07:59:48;;;;;;;17.98;7.20;;;6.70;94.80;;;;;;5064573;28;20078;-48
2022/01/26 08:02:14;;;;;;;16.92;6.18;;;6.60;94.70;;;;;;5057954;28;20021;-48
2022/01/26 08:04:39;;;;;;;13.57;5.82;;;6.70;94.70;;;;;;5066927;28;20054;-48
2022/01/26 08:07:05;;;;;;;14.57;6.15;;;6.70;94.70;;;;;;5062947;28;20028;-48
2022/01/26 08:09:31;;;;;;;14.95;7.07;;;6.70;94.70;;;;;;5065224;28;20044;-48
2022/01/26 08:11:56;;;;;;;17.20;7.05;;;6.70;94.70;;;;;;5069577;28;20016;-48
2022/01/26 08:14:22;;;;;;;21.00;7.40;;;6.70;94.70;;;;;;5069189;28;20453;-48
2022/01/26 08:16:48;;;;;;;17.83;7.22;;;6.70;94.70;;;;;;5066509;28;20021;-48
2022/01/26 08:19:14;;;;;;;21.05;8.15;;;6.70;94.70;;;;;;5069551;28;20024;-48
2022/01/26 08:21:41;;;;;;;21.25;8.65;;;6.70;94.70;;;;;;5064688;28;20028;-48
2022/01/26 08:24:13;;;;;;;24.67;10.07;;;6.70;95.00;;;;;;5062981;28;20471;-48
2022/01/26 08:26:47;;;;;;;25.40;10.20;;;6.70;94.70;;;;;;5063999;28;20358;-48
2022/01/26 08:29:26;;;;;;;23.27;8.63;;;6.70;94.70;;;;;;5066618;28;20239;-48
2022/01/26 08:31:52;;;;;;;37.25;11.35;;;6.70;94.70;;;;;;5071715;28;20032;-48
2022/01/26 08:34:17;;;;;;;31.98;11.60;;;6.70;94.70;;;;;;5063436;28;20159;-48
2022/01/26 08:36:43;;;;;;;36.17;11.57;;;6.70;94.70;;;;;;5068953;28;20433;-48
2022/01/26 08:39:09;;;;;;;34.90;12.20;;;6.70;94.70;;;;;;5062135;28;20056;-48
2022/01/26 08:41:35;;;;;;;29.98;9.82;;;6.70;94.70;;;;;;5062522;28;20129;-48
2022/01/26 08:44:01;;;;;;;24.00;9.73;;;6.70;94.70;;;;;;5066112;28;20033;-48
2022/01/26 08:46:27;;;;;;;28.20;10.82;;;6.70;94.70;;;;;;5066395;28;20408;-48
2022/01/26 08:48:53;;;;;;;29.85;9.68;;;6.70;94.80;;;;;;5070021;28;20025;-48
2022/01/26 08:51:19;;;;;;;28.67;10.57;;;6.70;94.80;;;;;;5069055;28;20028;-48
2022/01/26 08:53:45;;;;;;;32.33;11.85;;;6.70;94.80;;;;;;5066799;28;20120;-48
2022/01/26 08:56:11;;;;;;;25.92;10.73;;;6.70;94.80;;;;;;5069817;28;20035;-48
2022/01/26 08:58:37;;;;;;;29.48;9.55;;;6.70;94.80;;;;;;5069494;28;20645;-48
2022/01/26 09:01:02;;;;;;;32.92;10.95;;;6.70;94.90;;;;;;5069225;28;20029;-49
2022/01/26 09:03:28;;;;;;;34.92;12.85;;;6.70;94.90;;;;;;5068762;28;20024;-48
2022/01/26 09:05:54;;;;;;;27.27;11.20;;;6.70;94.90;;;;;;5066308;28;20025;-48
2022/01/26 09:08:19;;;;;;;31.70;9.75;;;6.70;95.00;;;;;;5069062;28;20024;-48
2022/01/26 09:10:45;;;;;;;36.10;12.80;;;6.80;95.10;;;;;;5067549;28;20017;-48
2022/01/26 09:13:11;;;;;;;23.63;8.60;;;6.80;95.10;;;;;;5068890;28;20024;-48
2022/01/26 09:15:39;;;;;;;28.75;10.02;;;6.80;95.00;;;;;;5064372;28;20037;-48
2022/01/26 09:18:06;;;;;;;26.17;9.35;;;6.90;95.10;;;;;;5069790;28;20086;-48
2022/01/26 09:20:38;;;;;;;33.55;11.43;;;6.90;95.10;;;;;;5068279;28;20412;-48
2022/01/26 09:23:04;;;;;;;24.42;9.95;;;6.90;95.10;;;;;;5068853;28;20495;-48
2022/01/26 09:25:29;;;;;;;24.20;9.80;;;6.90;95.20;;;;;;5063579;28;20358;-48
2022/01/26 09:27:56;;;;;;;21.60;7.97;;;6.90;95.20;;;;;;5069426;28;20459;-48
2022/01/26 09:30:22;;;;;;;24.15;10.13;;;6.90;95.30;;;;;;5069914;28;20032;-48
2022/01/26 09:32:48;;;;;;;25.85;8.13;;;7.00;95.20;;;;;;5068548;28;20037;-48
2022/01/26 09:35:14;;;;;;;23.02;8.98;;;7.00;95.20;;;;;;5063500;28;20135;-48
2022/01/26 09:37:41;;;;;;;27.92;10.48;;;7.00;95.20;;;;;;5069371;28;20318;-48
2022/01/26 09:40:08;;;;;;;28.13;11.35;;;7.00;95.20;;;;;;5060645;28;20054;-48
2022/01/26 09:42:36;;;;;;;28.88;10.15;;;7.00;95.40;;;;;;5067880;28;20355;-48
2022/01/26 09:45:04;;;;;;;26.33;11.02;;;7.00;95.40;;;;;;5067330;28;20044;-48
2022/01/26 09:47:30;;;;;;;31.40;10.65;;;7.00;95.50;;;;;;5069166;28;20439;-48
2022/01/26 09:49:55;;;;;;;25.73;9.40;;;7.00;95.50;;;;;;5067497;28;20108;-49
2022/01/26 09:52:33;;;;;;;28.05;10.18;;;7.10;95.40;;;;;;5070982;28;20063;-49
2022/01/26 09:55:00;;;;;;;31.10;12.85;;;7.10;95.40;;;;;;5068412;28;20097;-48
2022/01/26 09:57:28;;;;;;;37.65;13.80;;;7.10;95.50;;;;;;5073022;28;20135;-48
2022/01/26 09:59:54;;;;;;;29.35;12.38;;;7.10;95.60;;;;;;5072870;28;20036;-48
2022/01/26 10:02:28;;;;;;;32.70;11.52;;;7.20;95.60;;;;;;5068777;28;20066;-48
2022/01/26 10:05:01;;;;;;;46.75;13.63;;;7.10;95.60;;;;;;5069226;28;20401;-48
2022/01/26 10:18:00;;;;;;;27.30;9.18;;;7.20;95.80;;;;;;5072192;28;20025;-48
2022/01/26 10:20:26;;;;;;;33.03;10.27;;;7.30;96.00;;;;;;5068099;28;20017;-49
2022/01/26 10:22:52;;;;;;;25.08;7.78;;;7.30;96.00;;;;;;5070585;28;20434;-48
2022/01/26 10:25:19;;;;;;;26.58;10.27;;;7.30;96.10;;;;;;5067389;28;20457;-48
2022/01/26 10:27:48;;;;;;;20.20;7.03;;;7.40;96.30;;;;;;5069643;28;20033;-48
2022/01/26 10:30:15;;;;;;;26.48;9.40;;;7.40;96.30;;;;;;5068728;28;20115;-48
2022/01/26 10:32:45;;;;;;;27.83;12.10;;;7.40;96.40;;;;;;5070405;28;20110;-48
2022/01/26 10:35:11;;;;;;;30.60;10.55;;;7.40;96.60;;;;;;5069164;28;20037;-48
2022/01/26 10:37:40;;;;;;;10.02;5.38;;;7.40;96.60;;;;;;5069420;28;20445;-48
2022/01/26 10:40:13;;;;;;;29.70;10.77;;;7.40;96.40;;;;;;5064841;28;20541;-48
2022/01/26 10:42:39;;;;;;;24.95;7.90;;;7.40;96.40;;;;;;5071960;28;20282;-48
2022/01/26 10:47:36;;;;;;;21.17;7.22;;;7.40;96.60;;;;;;5069892;28;20021;-50
2022/01/26 10:50:43;;;;;;;21.17;9.45;;;7.40;96.00;;;;;;5068046;28;20485;-49
2022/01/26 10:53:12;;;;;;;35.58;13.57;;;7.40;95.20;;;;;;5069369;28;20462;-50
2022/01/26 10:55:39;;;;;;;15.90;7.57;;;7.40;94.40;;;;;;5067969;28;20442;-49
2022/01/26 10:58:07;;;;;;;30.08;10.02;;;7.40;93.30;;;;;;5068666;28;20071;-49
2022/01/26 11:00:38;;;;;;;34.45;12.57;;;7.40;92.60;;;;;;5062105;28;20025;-49
2022/01/26 11:03:05;;;;;;;22.08;8.77;;;7.40;92.20;;;;;;5065887;28;20033;-49
2022/01/26 11:05:31;;;;;;;23.40;9.27;;;7.40;91.70;;;;;;5069305;28;20035;-49
2022/01/26 11:07:58;;;;;;;29.08;9.55;;;7.40;91.80;;;;;;5069211;28;20396;-49
2022/01/26 11:10:36;;;;;;;18.10;8.23;;;7.40;91.20;;;;;;5067795;28;20032;-49
2022/01/26 11:13:04;;;;;;;32.65;12.30;;;7.30;91.30;;;;;;5066427;28;20028;-49
2022/01/26 11:15:29;;;;;;;21.30;8.35;;;7.30;90.60;;;;;;5068235;28;20040;-49
2022/01/26 11:18:05;;;;;;;34.90;12.02;;;7.30;90.70;;;;;;5068987;28;20045;-49
2022/01/26 11:20:44;;;;;;;33.92;13.32;;;7.30;90.40;;;;;;5067854;28;20109;-49
2022/01/26 11:23:10;;;;;;;25.10;11.23;;;7.30;90.50;;;;;;5064728;28;20501;-49
2022/01/26 11:25:44;;;;;;;7.72;4.07;;;7.30;90.60;;;;;;5062715;28;20043;-49
2022/01/26 11:28:21;;;;;;;11.32;5.05;;;7.30;90.80;;;;;;5072987;28;20028;-49
2022/01/26 11:30:49;;;;;;;31.85;12.20;;;7.30;91.00;;;;;;5063055;28;20066;-49
2022/01/26 11:33:19;;;;;;;26.45;9.30;;;7.30;91.20;;;;;;5063707;28;20013;-49
2022/01/26 11:35:48;;;;;;;20.43;7.40;;;7.30;91.20;;;;;;5068218;28;20074;-49
2022/01/26 11:46:58;;;;;;;37.83;13.18;;;7.30;91.80;;;;;;5057976;28;20066;-49
2022/01/26 11:49:31;;;;;;;27.23;11.48;;;7.30;91.70;;;;;;5062352;28;20021;-49
2022/01/26 11:51:57;;;;;;;28.80;10.90;;;7.30;91.80;;;;;;5066735;28;20211;-49
2022/01/26 11:54:49;;;;;;;17.05;7.95;;;7.30;92.20;;;;;;5074592;28;20024;-49
2022/01/26 11:57:17;;;;;;;23.52;10.73;;;7.30;92.20;;;;;;5061392;28;20059;-50
2022/01/26 11:59:51;;;;;;;23.58;9.43;;;7.30;92.10;;;;;;5069822;28;20112;-49
2022/01/26 12:02:30;;;;;;;28.25;9.85;;;7.30;92.40;;;;;;5059021;28;20025;-49
2022/01/26 12:05:05;;;;;;;15.45;6.80;;;7.30;92.40;;;;;;5060381;28;20033;-49
2022/01/26 12:07:31;;;;;;;29.85;12.10;;;7.30;92.20;;;;;;5059224;28;20113;-48
2022/01/26 12:09:57;;;;;;;29.20;9.68;;;7.40;92.10;;;;;;5069657;28;20028;-48
2022/01/26 12:12:24;;;;;;;16.20;8.45;;;7.40;92.20;;;;;;5067050;28;20024;-48
2022/01/26 12:15:01;;;;;;;29.35;10.40;;;7.40;92.40;;;;;;5067507;28;20041;-52
2022/01/26 12:17:32;;;;;;;26.25;11.05;;;7.40;92.50;;;;;;5069608;28;20028;-49
2022/01/26 12:20:12;;;;;;;24.27;9.23;;;7.30;92.80;;;;;;5070153;28;20091;-49
2022/01/26 12:36:51;;;;;;;19.02;7.82;;;7.40;92.40;;;;;;5060129;28;20518;-49
2022/01/26 12:41:09;;;;;;;7.82;5.78;;;7.40;92.20;;;;;;5069398;28;20095;-49
2022/01/26 12:42:15;;;;;;;18.05;8.50;;;7.40;92.30;;;;;;5067247;28;20058;-49
2022/01/26 12:44:41;;;;;;;18.65;8.90;;;7.40;92.40;;;;;;5069923;28;20473;-49
2022/01/26 12:47:07;;;;;;;19.77;9.40;;;7.40;92.50;;;;;;5066763;28;20028;-49
2022/01/26 12:49:34;;;;;;;11.38;5.45;;;7.40;92.60;;;;;;5061781;28;20449;-50
2022/01/26 12:52:00;;;;;;;22.33;8.07;;;7.40;92.60;;;;;;5067579;28;20074;-49
2022/01/26 12:54:26;;;;;;;24.27;10.07;;;7.40;92.40;;;;;;5068984;28;20032;-49
2022/01/26 12:57:03;;;;;;;16.10;7.32;;;7.50;92.40;;;;;;5067360;28;20422;-49
2022/01/26 12:59:28;;;;;;;22.55;8.23;;;7.40;92.90;;;;;;5068051;28;20027;-50
2022/01/26 13:01:54;;;;;;;24.77;11.32;;;7.50;92.70;;;;;;5069559;28;20104;-49
2022/01/26 13:04:20;;;;;;;15.18;6.40;;;7.40;93.00;;;;;;5062113;28;20036;-49
2022/01/26 13:06:49;;;;;;;25.02;11.38;;;7.50;92.80;;;;;;5069329;28;20052;-49
2022/01/26 13:09:14;;;;;;;36.17;12.27;;;7.50;92.90;;;;;;5066508;28;20036;-49
2022/01/26 13:11:40;;;;;;;23.92;10.48;;;7.50;93.10;;;;;;5063189;28;20082;-49
2022/01/26 13:14:21;;;;;;;33.72;13.05;;;7.50;92.70;;;;;;5067561;28;20322;-49
2022/01/26 13:22:28;;;;;;;28.38;12.32;;;7.50;92.80;;;;;;5072771;28;20017;-49
2022/01/26 13:31:04;;;;;;;23.83;11.10;;;7.50;92.70;;;;;;5072934;28;20031;-51
2022/01/26 13:43:40;;;;;;;38.30;13.77;;;7.50;91.90;;;;;;5066148;28;20040;-50
2022/01/26 13:46:38;;;;;;;38.22;11.95;;;7.50;92.40;;;;;;5066959;28;20033;-49
2022/01/26 13:49:06;;;;;;;34.85;12.88;;;7.50;92.70;;;;;;5071521;28;20043;-49
2022/01/26 14:02:13;;;;;;;35.88;12.68;;;7.40;92.40;;;;;;5088205;28;20044;-49
2022/01/26 14:04:40;;;;;;;32.55;11.88;;;7.40;92.50;;;;;;5086881;28;20038;-49
2022/01/26 14:07:07;;;;;;;28.67;10.52;;;7.40;92.30;;;;;;5080256;28;20035;-48
2022/01/26 14:09:32;;;;;;;27.30;11.88;;;7.40;92.50;;;;;;5084964;28;20107;-49
2022/01/26 14:12:00;;;;;;;38.00;13.30;;;7.40;92.30;;;;;;5078363;28;20119;-49
2022/01/26 14:14:32;;;;;;;34.85;12.63;;;7.40;92.30;;;;;;5083185;28;20554;-49
2022/01/26 14:17:01;;;;;;;25.10;11.57;;;7.40;92.60;;;;;;5090111;28;20024;-49
2022/01/26 14:27:25;;;;;;;29.63;11.13;;;7.40;91.80;;;;;;5089280;28;20042;-49
2022/01/26 14:32:47;;;;;;;32.67;10.82;;;7.40;92.50;;;;;;5083224;28;20036;-48
2022/01/26 14:35:16;;;;;;;30.02;10.98;;;7.40;92.50;;;;;;5088095;28;20048;-48
2022/01/26 14:40:43;;;;;;;25.73;10.57;;;7.40;92.50;;;;;;5071987;28;20471;-49
2022/01/26 14:54:10;;;;;;;34.10;12.43;;;7.30;92.40;;;;;;5072877;28;20052;-49
2022/01/26 15:11:05;;;;;;;28.33;10.30;;;7.30;92.70;;;;;;5063443;28;20043;-47
2022/01/26 16:07:03;;;;;;;51.40;12.82;;;7.40;93.00;;;;;;5063052;28;20071;-47
2022/01/26 16:52:30;;;;;;;28.30;10.05;;;7.40;93.50;;;;;;5067725;28;20027;-48
2022/01/26 17:11:23;;;;;;;22.15;8.80;;;7.30;93.60;;;;;;5068467;28;20069;-48
2022/01/26 17:47:07;;;;;;;27.42;10.25;;;7.20;94.10;;;;;;5068836;28;20040;-47
2022/01/26 17:55:18;;;;;;;19.80;8.57;;;7.20;93.90;;;;;;5069310;28;20089;-48
2022/01/26 18:04:05;;;;;;;20.15;7.55;;;7.20;93.90;;;;;;5058311;28;20362;-47
2022/01/26 18:16:53;;;;;;;19.63;8.10;;;7.20;94.10;;;;;;5064803;28;20039;-48
2022/01/26 18:33:08;;;;;;;23.15;7.30;;;7.20;94.20;;;;;;5064938;28;20090;-48
2022/01/26 18:51:53;;;;;;;23.65;9.20;;;7.20;94.30;;;;;;5075952;28;20025;-48
2022/01/26 18:54:21;;;;;;;21.45;8.65;;;7.20;94.30;;;;;;5070580;28;20492;-48
2022/01/26 18:56:48;;;;;;;34.17;12.20;;;7.20;94.30;;;;;;5064629;28;20046;-48
2022/01/26 18:59:15;;;;;;;29.70;12.63;;;7.20;94.30;;;;;;5065235;28;20025;-48
2022/01/26 19:01:41;;;;;;;19.98;8.57;;;7.20;94.30;;;;;;5064982;28;20040;-48
2022/01/26 19:04:07;;;;;;;23.90;8.52;;;7.20;94.40;;;;;;5065901;28;20068;-48
2022/01/26 19:06:37;;;;;;;21.40;8.57;;;7.20;94.40;;;;;;5062180;28;20052;-48
2022/01/26 19:09:03;;;;;;;23.40;9.07;;;7.20;94.40;;;;;;5063554;28;20024;-48
2022/01/26 19:11:28;;;;;;;21.55;8.80;;;7.20;94.40;;;;;;5063694;28;20043;-48
2022/01/26 19:13:54;;;;;;;27.48;10.20;;;7.20;94.40;;;;;;5062739;28;20086;-48
2022/01/26 19:16:31;;;;;;;20.63;8.05;;;7.20;94.40;;;;;;5059045;28;20512;-48
2022/01/26 19:24:53;;;;;;;17.00;7.53;;;7.20;94.40;;;;;;5062039;28;20492;-48
2022/01/26 19:32:35;;;;;;;21.75;8.05;;;7.20;94.40;;;;;;5065506;28;20035;-49
2022/01/26 19:51:07;;;;;;;19.20;7.07;;;7.20;94.50;;;;;;5066711;28;20079;-48
2022/01/26 19:53:32;;;;;;;20.98;8.63;;;7.20;94.40;;;;;;5071229;28;20642;-48